sensor_id;sensor_type;location;lat;lon;timestamp;P1;durP1;ratioP1;P2;durP2;ratioP2
59271;SDS011;45043;51.068;7.026;2023-05-24T00:02:22;9.20;;;3.57;;
59271;SDS011;45043;51.068;7.026;2023-05-24T00:05:25;9.27;;;3.73;;
59271;SDS011;45043;51.068;7.026;2023-05-24T00:08:30;9.37;;;3.57;;
59271;SDS011;45043;51.068;7.026;2023-05-24T00:11:30;8.33;;;3.70;;
59271;SDS011;45043;51.068;7.026;2023-05-24T00:14:31;11.53;;;3.43;;
59271;SDS011;45043;51.068;7.026;2023-05-24T00:17:31;10.10;;;3.13;;
59271;SDS011;45043;51.068;7.026;2023-05-24T00:20:33;9.83;;;3.73;;
59271;SDS011;45043;51.068;7.026;2023-05-24T00:23:34;9.10;;;3.00;;
59271;SDS011;45043;51.068;7.026;2023-05-24T00:26:36;12.10;;;3.47;;
59271;SDS011;45043;51.068;7.026;2023-05-24T00:29:38;10.27;;;3.73;;
59271;SDS011;45043;51.068;7.026;2023-05-24T00:32:39;15.07;;;3.40;;
59271;SDS011;45043;51.068;7.026;2023-05-24T00:35:40;10.67;;;3.17;;
59271;SDS011;45043;51.068;7.026;2023-05-24T00:38:40;10.07;;;3.27;;
59271;SDS011;45043;51.068;7.026;2023-05-24T00:41:40;10.17;;;3.23;;
59271;SDS011;45043;51.068;7.026;2023-05-24T00:44:41;13.23;;;3.13;;
59271;SDS011;45043;51.068;7.026;2023-05-24T00:47:41;10.00;;;3.40;;
59271;SDS011;45043;51.068;7.026;2023-05-24T00:50:42;12.30;;;3.50;;
59271;SDS011;45043;51.068;7.026;2023-05-24T00:53:44;10.87;;;3.20;;
59271;SDS011;45043;51.068;7.026;2023-05-24T00:56:46;10.90;;;4.00;;
59271;SDS011;45043;51.068;7.026;2023-05-24T00:59:47;7.63;;;3.10;;
59271;SDS011;45043;51.068;7.026;2023-05-24T01:02:48;9.90;;;3.20;;
59271;SDS011;45043;51.068;7.026;2023-05-24T01:05:50;8.37;;;3.23;;
59271;SDS011;45043;51.068;7.026;2023-05-24T01:18:43;12.03;;;3.43;;
59271;SDS011;45043;51.068;7.026;2023-05-24T01:21:53;9.77;;;3.40;;
59271;SDS011;45043;51.068;7.026;2023-05-24T01:25:22;10.10;;;3.83;;
59271;SDS011;45043;51.068;7.026;2023-05-24T01:28:42;11.70;;;3.50;;
59271;SDS011;45043;51.068;7.026;2023-05-24T01:31:44;11.60;;;3.43;;
59271;SDS011;45043;51.068;7.026;2023-05-24T01:34:44;12.50;;;3.50;;
59271;SDS011;45043;51.068;7.026;2023-05-24T01:37:45;12.27;;;3.53;;
59271;SDS011;45043;51.068;7.026;2023-05-24T01:40:46;10.43;;;3.63;;
59271;SDS011;45043;51.068;7.026;2023-05-24T01:50:13;9.40;;;3.60;;
59271;SDS011;45043;51.068;7.026;2023-05-24T01:53:19;12.60;;;3.63;;
59271;SDS011;45043;51.068;7.026;2023-05-24T01:56:25;13.30;;;3.93;;
59271;SDS011;45043;51.068;7.026;2023-05-24T01:59:28;10.93;;;3.33;;
59271;SDS011;45043;51.068;7.026;2023-05-24T02:02:31;10.73;;;3.37;;
59271;SDS011;45043;51.068;7.026;2023-05-24T02:05:31;12.60;;;3.40;;
59271;SDS011;45043;51.068;7.026;2023-05-24T02:08:32;15.30;;;4.50;;
59271;SDS011;45043;51.068;7.026;2023-05-24T02:11:33;8.47;;;3.73;;
59271;SDS011;45043;51.068;7.026;2023-05-24T02:14:33;9.17;;;3.63;;
59271;SDS011;45043;51.068;7.026;2023-05-24T02:17:36;14.47;;;4.43;;
59271;SDS011;45043;51.068;7.026;2023-05-24T02:20:40;12.77;;;4.80;;
59271;SDS011;45043;51.068;7.026;2023-05-24T02:23:40;9.23;;;4.03;;
59271;SDS011;45043;51.068;7.026;2023-05-24T02:26:41;12.17;;;4.13;;
59271;SDS011;45043;51.068;7.026;2023-05-24T02:29:42;7.97;;;3.37;;
59271;SDS011;45043;51.068;7.026;2023-05-24T02:32:43;9.20;;;4.33;;
59271;SDS011;45043;51.068;7.026;2023-05-24T02:35:43;16.13;;;4.50;;
59271;SDS011;45043;51.068;7.026;2023-05-24T02:38:43;13.70;;;4.87;;
59271;SDS011;45043;51.068;7.026;2023-05-24T02:41:44;13.20;;;5.17;;
59271;SDS011;45043;51.068;7.026;2023-05-24T02:44:45;15.00;;;5.43;;
59271;SDS011;45043;51.068;7.026;2023-05-24T02:47:48;12.53;;;4.97;;
59271;SDS011;45043;51.068;7.026;2023-05-24T02:50:48;11.73;;;5.37;;
59271;SDS011;45043;51.068;7.026;2023-05-24T02:53:48;12.10;;;4.90;;
59271;SDS011;45043;51.068;7.026;2023-05-24T02:56:50;11.83;;;5.30;;
59271;SDS011;45043;51.068;7.026;2023-05-24T02:59:51;10.33;;;5.00;;
59271;SDS011;45043;51.068;7.026;2023-05-24T03:02:52;12.97;;;4.70;;
59271;SDS011;45043;51.068;7.026;2023-05-24T03:05:54;13.80;;;5.73;;
59271;SDS011;45043;51.068;7.026;2023-05-24T03:08:55;14.70;;;5.70;;
59271;SDS011;45043;51.068;7.026;2023-05-24T03:11:58;11.70;;;4.90;;
59271;SDS011;45043;51.068;7.026;2023-05-24T03:15:02;9.90;;;4.70;;
59271;SDS011;45043;51.068;7.026;2023-05-24T03:18:04;11.70;;;5.03;;
59271;SDS011;45043;51.068;7.026;2023-05-24T03:21:05;16.53;;;5.00;;
59271;SDS011;45043;51.068;7.026;2023-05-24T03:24:07;12.47;;;4.90;;
59271;SDS011;45043;51.068;7.026;2023-05-24T03:27:09;10.70;;;5.30;;
59271;SDS011;45043;51.068;7.026;2023-05-24T03:30:10;9.67;;;4.63;;
59271;SDS011;45043;51.068;7.026;2023-05-24T03:33:20;11.50;;;4.87;;
59271;SDS011;45043;51.068;7.026;2023-05-24T03:36:21;12.90;;;5.53;;
59271;SDS011;45043;51.068;7.026;2023-05-24T03:39:22;10.57;;;5.47;;
59271;SDS011;45043;51.068;7.026;2023-05-24T03:42:29;12.83;;;5.13;;
59271;SDS011;45043;51.068;7.026;2023-05-24T03:45:29;14.20;;;5.57;;
59271;SDS011;45043;51.068;7.026;2023-05-24T03:48:31;10.47;;;5.07;;
59271;SDS011;45043;51.068;7.026;2023-05-24T03:51:32;12.90;;;4.77;;
59271;SDS011;45043;51.068;7.026;2023-05-24T03:54:33;8.60;;;4.60;;
59271;SDS011;45043;51.068;7.026;2023-05-24T03:57:34;9.17;;;5.20;;
59271;SDS011;45043;51.068;7.026;2023-05-24T04:00:35;9.13;;;4.10;;
59271;SDS011;45043;51.068;7.026;2023-05-24T04:03:35;11.10;;;4.73;;
59271;SDS011;45043;51.068;7.026;2023-05-24T04:06:36;7.50;;;4.20;;
59271;SDS011;45043;51.068;7.026;2023-05-24T04:09:37;10.93;;;3.60;;
59271;SDS011;45043;51.068;7.026;2023-05-24T04:12:37;11.23;;;4.90;;
59271;SDS011;45043;51.068;7.026;2023-05-24T04:15:41;5.43;;;3.40;;
59271;SDS011;45043;51.068;7.026;2023-05-24T04:18:43;9.23;;;3.67;;
59271;SDS011;45043;51.068;7.026;2023-05-24T04:21:44;9.63;;;4.83;;
59271;SDS011;45043;51.068;7.026;2023-05-24T04:24:45;9.13;;;3.73;;
59271;SDS011;45043;51.068;7.026;2023-05-24T04:27:47;7.93;;;3.23;;
59271;SDS011;45043;51.068;7.026;2023-05-24T04:30:49;7.57;;;3.40;;
59271;SDS011;45043;51.068;7.026;2023-05-24T04:33:51;8.47;;;3.53;;
59271;SDS011;45043;51.068;7.026;2023-05-24T04:36:52;8.03;;;3.63;;
59271;SDS011;45043;51.068;7.026;2023-05-24T04:39:53;5.70;;;3.10;;
59271;SDS011;45043;51.068;7.026;2023-05-24T04:42:53;17.23;;;3.37;;
59271;SDS011;45043;51.068;7.026;2023-05-24T04:45:54;20.77;;;4.53;;
59271;SDS011;45043;51.068;7.026;2023-05-24T04:48:54;11.83;;;3.70;;
59271;SDS011;45043;51.068;7.026;2023-05-24T04:51:55;8.03;;;3.97;;
59271;SDS011;45043;51.068;7.026;2023-05-24T04:54:55;12.20;;;4.10;;
59271;SDS011;45043;51.068;7.026;2023-05-24T04:57:57;12.50;;;3.97;;
59271;SDS011;45043;51.068;7.026;2023-05-24T05:00:57;10.27;;;4.17;;
59271;SDS011;45043;51.068;7.026;2023-05-24T05:03:58;12.60;;;4.07;;
59271;SDS011;45043;51.068;7.026;2023-05-24T05:07:00;12.73;;;4.57;;
59271;SDS011;45043;51.068;7.026;2023-05-24T05:10:00;12.00;;;3.87;;
59271;SDS011;45043;51.068;7.026;2023-05-24T05:13:00;9.07;;;3.87;;
59271;SDS011;45043;51.068;7.026;2023-05-24T05:16:01;8.37;;;3.40;;
59271;SDS011;45043;51.068;7.026;2023-05-24T05:19:02;12.70;;;4.13;;
59271;SDS011;45043;51.068;7.026;2023-05-24T05:22:04;8.53;;;4.00;;
59271;SDS011;45043;51.068;7.026;2023-05-24T05:25:04;13.50;;;4.27;;
59271;SDS011;45043;51.068;7.026;2023-05-24T05:28:05;14.17;;;4.17;;
59271;SDS011;45043;51.068;7.026;2023-05-24T05:31:05;14.07;;;4.73;;
59271;SDS011;45043;51.068;7.026;2023-05-24T05:34:06;12.20;;;4.30;;
59271;SDS011;45043;51.068;7.026;2023-05-24T05:37:10;11.70;;;4.30;;
59271;SDS011;45043;51.068;7.026;2023-05-24T05:40:10;12.27;;;4.07;;
59271;SDS011;45043;51.068;7.026;2023-05-24T05:43:11;11.87;;;4.20;;
59271;SDS011;45043;51.068;7.026;2023-05-24T05:46:11;11.80;;;4.60;;
59271;SDS011;45043;51.068;7.026;2023-05-24T05:49:15;10.43;;;4.67;;
59271;SDS011;45043;51.068;7.026;2023-05-24T05:52:18;12.43;;;4.37;;
59271;SDS011;45043;51.068;7.026;2023-05-24T05:55:18;12.30;;;4.10;;
59271;SDS011;45043;51.068;7.026;2023-05-24T05:58:18;10.27;;;4.03;;
59271;SDS011;45043;51.068;7.026;2023-05-24T06:01:19;16.67;;;5.07;;
59271;SDS011;45043;51.068;7.026;2023-05-24T06:04:20;10.47;;;4.03;;
59271;SDS011;45043;51.068;7.026;2023-05-24T06:07:21;13.80;;;4.97;;
59271;SDS011;45043;51.068;7.026;2023-05-24T06:10:21;10.77;;;4.90;;
59271;SDS011;45043;51.068;7.026;2023-05-24T06:13:21;14.77;;;4.47;;
59271;SDS011;45043;51.068;7.026;2023-05-24T06:16:22;11.97;;;4.73;;
59271;SDS011;45043;51.068;7.026;2023-05-24T06:19:22;14.77;;;4.50;;
59271;SDS011;45043;51.068;7.026;2023-05-24T06:22:23;15.83;;;5.10;;
59271;SDS011;45043;51.068;7.026;2023-05-24T06:25:24;17.43;;;5.47;;
59271;SDS011;45043;51.068;7.026;2023-05-24T06:28:25;15.30;;;5.23;;
59271;SDS011;45043;51.068;7.026;2023-05-24T06:31:26;14.83;;;5.10;;
59271;SDS011;45043;51.068;7.026;2023-05-24T06:34:26;16.97;;;4.67;;
59271;SDS011;45043;51.068;7.026;2023-05-24T06:37:28;18.23;;;5.47;;
59271;SDS011;45043;51.068;7.026;2023-05-24T06:40:30;15.20;;;4.97;;
59271;SDS011;45043;51.068;7.026;2023-05-24T06:43:30;15.03;;;5.47;;
59271;SDS011;45043;51.068;7.026;2023-05-24T06:46:32;19.07;;;5.03;;
59271;SDS011;45043;51.068;7.026;2023-05-24T06:49:33;17.67;;;5.70;;
59271;SDS011;45043;51.068;7.026;2023-05-24T06:52:34;15.40;;;5.37;;
59271;SDS011;45043;51.068;7.026;2023-05-24T06:55:34;17.83;;;6.50;;
59271;SDS011;45043;51.068;7.026;2023-05-24T06:58:35;13.00;;;4.97;;
59271;SDS011;45043;51.068;7.026;2023-05-24T07:01:35;16.83;;;5.23;;
59271;SDS011;45043;51.068;7.026;2023-05-24T07:04:39;19.97;;;5.93;;
59271;SDS011;45043;51.068;7.026;2023-05-24T07:07:40;15.23;;;5.70;;
59271;SDS011;45043;51.068;7.026;2023-05-24T07:10:42;20.30;;;5.90;;
59271;SDS011;45043;51.068;7.026;2023-05-24T07:13:43;15.30;;;6.13;;
59271;SDS011;45043;51.068;7.026;2023-05-24T07:16:44;18.10;;;5.47;;
59271;SDS011;45043;51.068;7.026;2023-05-24T07:19:46;16.87;;;5.60;;
59271;SDS011;45043;51.068;7.026;2023-05-24T07:22:46;17.90;;;6.30;;
59271;SDS011;45043;51.068;7.026;2023-05-24T07:25:47;16.23;;;5.10;;
59271;SDS011;45043;51.068;7.026;2023-05-24T07:28:48;14.90;;;5.73;;
59271;SDS011;45043;51.068;7.026;2023-05-24T07:31:50;24.83;;;8.93;;
59271;SDS011;45043;51.068;7.026;2023-05-24T07:34:50;23.20;;;9.07;;
59271;SDS011;45043;51.068;7.026;2023-05-24T07:37:51;20.60;;;7.47;;
59271;SDS011;45043;51.068;7.026;2023-05-24T07:40:51;17.40;;;6.57;;
59271;SDS011;45043;51.068;7.026;2023-05-24T07:43:55;19.30;;;6.53;;
59271;SDS011;45043;51.068;7.026;2023-05-24T07:46:55;10.67;;;5.03;;
59271;SDS011;45043;51.068;7.026;2023-05-24T07:49:56;15.07;;;4.90;;
59271;SDS011;45043;51.068;7.026;2023-05-24T07:52:56;14.13;;;5.33;;
59271;SDS011;45043;51.068;7.026;2023-05-24T07:55:56;16.50;;;5.67;;
59271;SDS011;45043;51.068;7.026;2023-05-24T07:58:57;12.60;;;5.03;;
59271;SDS011;45043;51.068;7.026;2023-05-24T08:02:04;20.70;;;6.27;;
59271;SDS011;45043;51.068;7.026;2023-05-24T08:05:05;13.70;;;4.70;;
59271;SDS011;45043;51.068;7.026;2023-05-24T08:08:08;13.10;;;4.57;;
59271;SDS011;45043;51.068;7.026;2023-05-24T08:11:09;15.33;;;5.23;;
59271;SDS011;45043;51.068;7.026;2023-05-24T08:14:09;16.87;;;5.37;;
59271;SDS011;45043;51.068;7.026;2023-05-24T08:17:11;14.07;;;5.40;;
59271;SDS011;45043;51.068;7.026;2023-05-24T08:20:11;11.23;;;4.23;;
59271;SDS011;45043;51.068;7.026;2023-05-24T08:23:15;13.37;;;4.53;;
59271;SDS011;45043;51.068;7.026;2023-05-24T08:26:16;10.50;;;4.57;;
59271;SDS011;45043;51.068;7.026;2023-05-24T08:29:18;11.30;;;4.40;;
59271;SDS011;45043;51.068;7.026;2023-05-24T08:32:18;10.87;;;4.60;;
59271;SDS011;45043;51.068;7.026;2023-05-24T08:35:19;11.10;;;4.10;;
59271;SDS011;45043;51.068;7.026;2023-05-24T08:38:19;8.40;;;3.63;;
59271;SDS011;45043;51.068;7.026;2023-05-24T08:41:19;13.10;;;4.80;;
59271;SDS011;45043;51.068;7.026;2023-05-24T08:44:20;14.27;;;5.07;;
59271;SDS011;45043;51.068;7.026;2023-05-24T08:47:22;13.10;;;3.90;;
59271;SDS011;45043;51.068;7.026;2023-05-24T08:50:24;13.50;;;4.90;;
59271;SDS011;45043;51.068;7.026;2023-05-24T08:53:25;12.27;;;4.37;;
59271;SDS011;45043;51.068;7.026;2023-05-24T08:56:26;13.60;;;4.37;;
59271;SDS011;45043;51.068;7.026;2023-05-24T08:59:30;14.47;;;4.80;;
59271;SDS011;45043;51.068;7.026;2023-05-24T09:02:31;10.70;;;3.93;;
59271;SDS011;45043;51.068;7.026;2023-05-24T09:05:32;9.47;;;4.30;;
59271;SDS011;45043;51.068;7.026;2023-05-24T09:08:34;10.03;;;3.87;;
59271;SDS011;45043;51.068;7.026;2023-05-24T09:11:38;11.30;;;5.33;;
59271;SDS011;45043;51.068;7.026;2023-05-24T09:14:45;10.97;;;4.10;;
59271;SDS011;45043;51.068;7.026;2023-05-24T09:17:46;15.57;;;4.13;;
59271;SDS011;45043;51.068;7.026;2023-05-24T09:20:47;11.73;;;4.30;;
59271;SDS011;45043;51.068;7.026;2023-05-24T09:23:48;13.20;;;4.30;;
59271;SDS011;45043;51.068;7.026;2023-05-24T09:26:48;10.83;;;3.93;;
59271;SDS011;45043;51.068;7.026;2023-05-24T09:29:50;12.20;;;4.37;;
59271;SDS011;45043;51.068;7.026;2023-05-24T09:32:54;12.63;;;5.30;;
59271;SDS011;45043;51.068;7.026;2023-05-24T09:35:56;12.90;;;4.17;;
59271;SDS011;45043;51.068;7.026;2023-05-24T09:39:05;13.30;;;4.97;;
59271;SDS011;45043;51.068;7.026;2023-05-24T09:42:13;12.17;;;4.63;;
59271;SDS011;45043;51.068;7.026;2023-05-24T09:45:15;15.83;;;4.60;;
59271;SDS011;45043;51.068;7.026;2023-05-24T09:48:16;12.27;;;3.93;;
59271;SDS011;45043;51.068;7.026;2023-05-24T09:51:16;12.73;;;4.07;;
59271;SDS011;45043;51.068;7.026;2023-05-24T09:54:19;15.13;;;4.13;;
59271;SDS011;45043;51.068;7.026;2023-05-24T09:57:19;13.13;;;4.27;;
59271;SDS011;45043;51.068;7.026;2023-05-24T10:00:24;14.67;;;4.17;;
59271;SDS011;45043;51.068;7.026;2023-05-24T10:03:25;14.33;;;4.30;;
59271;SDS011;45043;51.068;7.026;2023-05-24T10:06:26;13.53;;;4.27;;
59271;SDS011;45043;51.068;7.026;2023-05-24T10:09:28;12.40;;;4.47;;
59271;SDS011;45043;51.068;7.026;2023-05-24T10:12:33;13.23;;;4.70;;
59271;SDS011;45043;51.068;7.026;2023-05-24T10:15:42;24.10;;;13.10;;
59271;SDS011;45043;51.068;7.026;2023-05-24T10:18:44;19.40;;;6.00;;
59271;SDS011;45043;51.068;7.026;2023-05-24T10:21:44;12.20;;;6.93;;
59271;SDS011;45043;51.068;7.026;2023-05-24T10:24:46;19.30;;;11.00;;
59271;SDS011;45043;51.068;7.026;2023-05-24T10:28:11;15.77;;;8.97;;
59271;SDS011;45043;51.068;7.026;2023-05-24T10:31:16;14.73;;;6.50;;
59271;SDS011;45043;51.068;7.026;2023-05-24T10:34:21;12.53;;;4.83;;
59271;SDS011;45043;51.068;7.026;2023-05-24T10:37:22;16.20;;;6.37;;
59271;SDS011;45043;51.068;7.026;2023-05-24T10:40:25;15.90;;;7.20;;
59271;SDS011;45043;51.068;7.026;2023-05-24T10:43:26;17.10;;;9.60;;
59271;SDS011;45043;51.068;7.026;2023-05-24T10:46:26;13.53;;;6.47;;
59271;SDS011;45043;51.068;7.026;2023-05-24T10:49:27;12.60;;;4.40;;
59271;SDS011;45043;51.068;7.026;2023-05-24T10:52:34;12.47;;;4.83;;
59271;SDS011;45043;51.068;7.026;2023-05-24T10:55:35;8.87;;;3.90;;
59271;SDS011;45043;51.068;7.026;2023-05-24T11:01:56;9.83;;;4.13;;
59271;SDS011;45043;51.068;7.026;2023-05-24T11:05:03;8.10;;;4.10;;
59271;SDS011;45043;51.068;7.026;2023-05-24T11:08:05;9.90;;;4.20;;
59271;SDS011;45043;51.068;7.026;2023-05-24T11:11:09;10.37;;;4.27;;
59271;SDS011;45043;51.068;7.026;2023-05-24T11:14:12;10.93;;;4.90;;
59271;SDS011;45043;51.068;7.026;2023-05-24T11:17:14;6.40;;;4.23;;
59271;SDS011;45043;51.068;7.026;2023-05-24T11:20:16;11.57;;;4.30;;
59271;SDS011;45043;51.068;7.026;2023-05-24T11:23:16;8.90;;;4.17;;
59271;SDS011;45043;51.068;7.026;2023-05-24T11:26:18;10.67;;;4.00;;
59271;SDS011;45043;51.068;7.026;2023-05-24T11:29:18;19.07;;;5.13;;
59271;SDS011;45043;51.068;7.026;2023-05-24T11:32:23;15.40;;;5.27;;
59271;SDS011;45043;51.068;7.026;2023-05-24T11:35:25;10.73;;;4.93;;
59271;SDS011;45043;51.068;7.026;2023-05-24T11:38:27;9.43;;;4.00;;
59271;SDS011;45043;51.068;7.026;2023-05-24T11:41:27;11.10;;;4.23;;
59271;SDS011;45043;51.068;7.026;2023-05-24T11:44:28;11.17;;;4.40;;
59271;SDS011;45043;51.068;7.026;2023-05-24T11:47:34;14.57;;;4.83;;
59271;SDS011;45043;51.068;7.026;2023-05-24T11:50:41;13.90;;;4.70;;
59271;SDS011;45043;51.068;7.026;2023-05-24T11:53:44;11.17;;;4.73;;
59271;SDS011;45043;51.068;7.026;2023-05-24T11:56:45;14.93;;;5.47;;
59271;SDS011;45043;51.068;7.026;2023-05-24T11:59:47;8.93;;;4.80;;
59271;SDS011;45043;51.068;7.026;2023-05-24T12:02:48;15.17;;;5.00;;
59271;SDS011;45043;51.068;7.026;2023-05-24T12:05:48;11.63;;;4.60;;
59271;SDS011;45043;51.068;7.026;2023-05-24T12:08:49;15.43;;;4.23;;
59271;SDS011;45043;51.068;7.026;2023-05-24T12:11:49;10.83;;;4.70;;
59271;SDS011;45043;51.068;7.026;2023-05-24T12:14:53;11.23;;;4.40;;
59271;SDS011;45043;51.068;7.026;2023-05-24T12:17:55;14.53;;;4.90;;
59271;SDS011;45043;51.068;7.026;2023-05-24T12:20:56;13.73;;;4.70;;
59271;SDS011;45043;51.068;7.026;2023-05-24T12:24:30;11.30;;;4.67;;
59271;SDS011;45043;51.068;7.026;2023-05-24T12:27:28;11.30;;;4.23;;
59271;SDS011;45043;51.068;7.026;2023-05-24T12:30:30;12.57;;;4.83;;
59271;SDS011;45043;51.068;7.026;2023-05-24T12:33:31;13.23;;;4.87;;
59271;SDS011;45043;51.068;7.026;2023-05-24T12:36:33;11.47;;;4.87;;
59271;SDS011;45043;51.068;7.026;2023-05-24T12:39:35;10.37;;;4.90;;
59271;SDS011;45043;51.068;7.026;2023-05-24T12:42:36;9.17;;;4.70;;
59271;SDS011;45043;51.068;7.026;2023-05-24T12:45:37;12.57;;;4.23;;
59271;SDS011;45043;51.068;7.026;2023-05-24T12:48:38;9.93;;;4.60;;
59271;SDS011;45043;51.068;7.026;2023-05-24T12:51:38;10.33;;;5.10;;
59271;SDS011;45043;51.068;7.026;2023-05-24T12:54:38;12.23;;;4.87;;
59271;SDS011;45043;51.068;7.026;2023-05-24T12:57:39;11.97;;;4.73;;
59271;SDS011;45043;51.068;7.026;2023-05-24T13:00:41;12.00;;;5.07;;
59271;SDS011;45043;51.068;7.026;2023-05-24T13:03:43;13.00;;;5.20;;
59271;SDS011;45043;51.068;7.026;2023-05-24T13:06:44;10.80;;;4.97;;
59271;SDS011;45043;51.068;7.026;2023-05-24T13:09:44;15.00;;;5.17;;
59271;SDS011;45043;51.068;7.026;2023-05-24T13:12:45;13.13;;;5.47;;
59271;SDS011;45043;51.068;7.026;2023-05-24T13:15:46;11.10;;;4.53;;
59271;SDS011;45043;51.068;7.026;2023-05-24T13:18:46;10.87;;;5.00;;
59271;SDS011;45043;51.068;7.026;2023-05-24T13:21:47;15.40;;;5.73;;
59271;SDS011;45043;51.068;7.026;2023-05-24T13:24:48;11.63;;;4.93;;
59271;SDS011;45043;51.068;7.026;2023-05-24T13:27:48;15.30;;;6.03;;
59271;SDS011;45043;51.068;7.026;2023-05-24T13:30:48;15.33;;;7.80;;
59271;SDS011;45043;51.068;7.026;2023-05-24T13:33:49;21.37;;;14.43;;
59271;SDS011;45043;51.068;7.026;2023-05-24T13:36:54;13.33;;;8.00;;
59271;SDS011;45043;51.068;7.026;2023-05-24T13:39:56;14.20;;;5.20;;
59271;SDS011;45043;51.068;7.026;2023-05-24T13:42:57;11.63;;;4.90;;
59271;SDS011;45043;51.068;7.026;2023-05-24T13:45:57;10.87;;;4.20;;
59271;SDS011;45043;51.068;7.026;2023-05-24T13:48:59;12.27;;;5.53;;
59271;SDS011;45043;51.068;7.026;2023-05-24T13:51:59;12.67;;;5.40;;
59271;SDS011;45043;51.068;7.026;2023-05-24T13:55:01;13.20;;;5.03;;
59271;SDS011;45043;51.068;7.026;2023-05-24T13:58:04;16.03;;;4.70;;
59271;SDS011;45043;51.068;7.026;2023-05-24T14:01:04;13.13;;;5.27;;
59271;SDS011;45043;51.068;7.026;2023-05-24T14:04:05;9.80;;;4.67;;
59271;SDS011;45043;51.068;7.026;2023-05-24T14:07:06;10.77;;;4.87;;
59271;SDS011;45043;51.068;7.026;2023-05-24T14:10:08;15.93;;;5.00;;
59271;SDS011;45043;51.068;7.026;2023-05-24T14:13:09;14.40;;;5.20;;
59271;SDS011;45043;51.068;7.026;2023-05-24T14:16:10;13.17;;;5.07;;
59271;SDS011;45043;51.068;7.026;2023-05-24T14:19:10;9.50;;;5.10;;
59271;SDS011;45043;51.068;7.026;2023-05-24T14:22:10;16.70;;;5.90;;
59271;SDS011;45043;51.068;7.026;2023-05-24T14:25:11;13.00;;;5.93;;
59271;SDS011;45043;51.068;7.026;2023-05-24T14:28:11;12.50;;;5.27;;
59271;SDS011;45043;51.068;7.026;2023-05-24T14:31:12;13.77;;;6.33;;
59271;SDS011;45043;51.068;7.026;2023-05-24T14:34:12;12.20;;;5.90;;
59271;SDS011;45043;51.068;7.026;2023-05-24T14:37:12;9.60;;;5.43;;
59271;SDS011;45043;51.068;7.026;2023-05-24T14:40:13;12.10;;;6.10;;
59271;SDS011;45043;51.068;7.026;2023-05-24T14:43:13;9.60;;;5.03;;
59271;SDS011;45043;51.068;7.026;2023-05-24T14:46:14;13.67;;;6.03;;
59271;SDS011;45043;51.068;7.026;2023-05-24T14:49:14;13.77;;;6.37;;
59271;SDS011;45043;51.068;7.026;2023-05-24T14:52:15;16.63;;;5.50;;
59271;SDS011;45043;51.068;7.026;2023-05-24T14:55:15;13.33;;;4.93;;
59271;SDS011;45043;51.068;7.026;2023-05-24T14:58:20;10.87;;;5.60;;
59271;SDS011;45043;51.068;7.026;2023-05-24T15:01:21;11.40;;;5.33;;
59271;SDS011;45043;51.068;7.026;2023-05-24T15:04:22;15.47;;;5.37;;
59271;SDS011;45043;51.068;7.026;2023-05-24T15:07:22;11.30;;;5.43;;
59271;SDS011;45043;51.068;7.026;2023-05-24T15:10:22;12.13;;;5.43;;
59271;SDS011;45043;51.068;7.026;2023-05-24T15:13:23;11.43;;;5.57;;
59271;SDS011;45043;51.068;7.026;2023-05-24T15:16:25;9.07;;;5.00;;
59271;SDS011;45043;51.068;7.026;2023-05-24T15:19:26;9.47;;;4.90;;
59271;SDS011;45043;51.068;7.026;2023-05-24T15:22:27;9.07;;;5.27;;
59271;SDS011;45043;51.068;7.026;2023-05-24T15:25:27;12.07;;;5.00;;
59271;SDS011;45043;51.068;7.026;2023-05-24T15:28:28;9.63;;;5.43;;
59271;SDS011;45043;51.068;7.026;2023-05-24T15:31:28;8.43;;;5.30;;
59271;SDS011;45043;51.068;7.026;2023-05-24T15:34:29;14.87;;;5.73;;
59271;SDS011;45043;51.068;7.026;2023-05-24T15:37:30;11.47;;;6.00;;
59271;SDS011;45043;51.068;7.026;2023-05-24T15:40:38;11.13;;;5.77;;
59271;SDS011;45043;51.068;7.026;2023-05-24T15:43:41;15.73;;;5.40;;
59271;SDS011;45043;51.068;7.026;2023-05-24T15:46:41;12.07;;;6.83;;
59271;SDS011;45043;51.068;7.026;2023-05-24T15:49:42;15.87;;;6.13;;
59271;SDS011;45043;51.068;7.026;2023-05-24T15:52:42;12.00;;;5.80;;
59271;SDS011;45043;51.068;7.026;2023-05-24T15:55:43;9.60;;;5.87;;
59271;SDS011;45043;51.068;7.026;2023-05-24T15:58:46;12.23;;;5.90;;
59271;SDS011;45043;51.068;7.026;2023-05-24T16:01:46;10.47;;;5.27;;
59271;SDS011;45043;51.068;7.026;2023-05-24T16:04:47;10.20;;;6.10;;
59271;SDS011;45043;51.068;7.026;2023-05-24T16:07:47;13.53;;;5.80;;
59271;SDS011;45043;51.068;7.026;2023-05-24T16:10:48;10.17;;;5.73;;
59271;SDS011;45043;51.068;7.026;2023-05-24T16:13:48;11.97;;;5.60;;
59271;SDS011;45043;51.068;7.026;2023-05-24T16:16:49;9.97;;;5.53;;
59271;SDS011;45043;51.068;7.026;2023-05-24T16:19:49;11.23;;;6.37;;
59271;SDS011;45043;51.068;7.026;2023-05-24T16:22:50;11.90;;;5.97;;
59271;SDS011;45043;51.068;7.026;2023-05-24T16:25:51;10.77;;;6.07;;
59271;SDS011;45043;51.068;7.026;2023-05-24T16:28:52;13.17;;;5.77;;
59271;SDS011;45043;51.068;7.026;2023-05-24T16:31:52;11.10;;;6.10;;
59271;SDS011;45043;51.068;7.026;2023-05-24T16:34:53;15.50;;;6.90;;
59271;SDS011;45043;51.068;7.026;2023-05-24T16:37:53;12.53;;;6.07;;
59271;SDS011;45043;51.068;7.026;2023-05-24T16:40:55;8.40;;;5.30;;
59271;SDS011;45043;51.068;7.026;2023-05-24T16:43:55;12.17;;;5.00;;
59271;SDS011;45043;51.068;7.026;2023-05-24T16:46:56;11.43;;;4.93;;
59271;SDS011;45043;51.068;7.026;2023-05-24T16:49:56;10.80;;;5.30;;
59271;SDS011;45043;51.068;7.026;2023-05-24T16:52:57;14.93;;;5.60;;
59271;SDS011;45043;51.068;7.026;2023-05-24T16:55:57;17.17;;;9.03;;
59271;SDS011;45043;51.068;7.026;2023-05-24T16:58:58;15.57;;;10.27;;
59271;SDS011;45043;51.068;7.026;2023-05-24T17:01:58;14.20;;;5.77;;
59271;SDS011;45043;51.068;7.026;2023-05-24T17:04:59;10.43;;;5.10;;
59271;SDS011;45043;51.068;7.026;2023-05-24T17:07:59;11.70;;;4.73;;
59271;SDS011;45043;51.068;7.026;2023-05-24T17:11:01;15.63;;;6.27;;
59271;SDS011;45043;51.068;7.026;2023-05-24T17:14:02;12.13;;;6.97;;
59271;SDS011;45043;51.068;7.026;2023-05-24T17:17:03;9.47;;;4.90;;
59271;SDS011;45043;51.068;7.026;2023-05-24T17:20:03;15.97;;;5.57;;
59271;SDS011;45043;51.068;7.026;2023-05-24T17:23:04;11.77;;;6.13;;
59271;SDS011;45043;51.068;7.026;2023-05-24T17:26:05;32.63;;;22.30;;
59271;SDS011;45043;51.068;7.026;2023-05-24T17:29:07;28.10;;;17.97;;
59271;SDS011;45043;51.068;7.026;2023-05-24T17:32:08;24.60;;;9.30;;
59271;SDS011;45043;51.068;7.026;2023-05-24T17:35:08;9.63;;;4.87;;
59271;SDS011;45043;51.068;7.026;2023-05-24T17:38:09;12.17;;;4.63;;
59271;SDS011;45043;51.068;7.026;2023-05-24T17:41:10;8.57;;;4.10;;
59271;SDS011;45043;51.068;7.026;2023-05-24T17:44:10;10.90;;;5.00;;
59271;SDS011;45043;51.068;7.026;2023-05-24T17:47:11;11.17;;;4.97;;
59271;SDS011;45043;51.068;7.026;2023-05-24T17:50:11;12.00;;;5.20;;
59271;SDS011;45043;51.068;7.026;2023-05-24T17:53:12;12.37;;;4.10;;
59271;SDS011;45043;51.068;7.026;2023-05-24T17:56:12;13.57;;;5.07;;
59271;SDS011;45043;51.068;7.026;2023-05-24T17:59:13;10.47;;;5.30;;
59271;SDS011;45043;51.068;7.026;2023-05-24T18:02:13;10.63;;;5.30;;
59271;SDS011;45043;51.068;7.026;2023-05-24T18:05:14;10.23;;;4.87;;
59271;SDS011;45043;51.068;7.026;2023-05-24T18:08:15;12.43;;;5.07;;
59271;SDS011;45043;51.068;7.026;2023-05-24T18:11:15;9.27;;;4.07;;
59271;SDS011;45043;51.068;7.026;2023-05-24T18:14:16;12.67;;;4.33;;
59271;SDS011;45043;51.068;7.026;2023-05-24T18:17:17;8.80;;;4.60;;
59271;SDS011;45043;51.068;7.026;2023-05-24T18:20:17;12.90;;;5.60;;